createdAt,value
2023-05-09T00:00:01.896Z,1014.559
2023-05-09T00:07:01.898Z,1014.665
2023-05-09T00:14:01.949Z,1014.665
2023-05-09T00:21:02.212Z,1014.367
2023-05-09T00:28:01.647Z,1014.367
2023-05-09T00:35:01.970Z,1014.303
2023-05-09T00:42:01.583Z,1014.303
2023-05-09T00:49:01.819Z,1014.07
2023-05-09T00:56:01.710Z,1013.898
2023-05-09T01:00:02.376Z,1013.898
2023-05-09T01:07:01.968Z,1013.898
2023-05-09T01:14:01.793Z,1013.775
2023-05-09T01:21:01.566Z,1013.775
2023-05-09T01:28:02.286Z,1013.556
2023-05-09T01:35:02.376Z,1013.638
2023-05-09T01:42:01.451Z,1013.638
2023-05-09T01:49:01.526Z,1013.602
2023-05-09T01:56:01.991Z,1013.602
2023-05-09T02:00:01.571Z,1013.432
2023-05-09T02:07:02.304Z,1013.432
2023-05-09T02:14:01.927Z,1013.611
2023-05-09T02:21:02.309Z,1013.611
2023-05-09T02:28:01.943Z,1013.178
2023-05-09T02:35:01.662Z,1013.178
2023-05-09T02:42:01.369Z,1013.398
2023-05-09T02:49:01.935Z,1013.398
2023-05-09T02:56:01.353Z,1013.299
2023-05-09T03:00:01.971Z,1013.299
2023-05-09T03:07:01.608Z,1013.264
2023-05-09T03:14:01.517Z,1013.264
2023-05-09T03:21:01.591Z,1013.267
2023-05-09T03:28:01.348Z,1013.267
2023-05-09T03:35:02.343Z,1013.251
2023-05-09T03:42:01.425Z,1013.251
2023-05-09T03:49:01.766Z,1013.338
2023-05-09T03:56:01.776Z,1013.093
2023-05-09T04:00:02.371Z,1013.093
2023-05-09T04:07:01.692Z,1013.093
2023-05-09T04:14:02.040Z,1013.003
2023-05-09T04:21:02.089Z,1013.003
2023-05-09T04:28:02.098Z,1012.657
2023-05-09T04:35:02.150Z,1012.58
2023-05-09T04:42:02.256Z,1012.58
2023-05-09T04:49:02.097Z,1012.658
2023-05-09T04:56:01.666Z,1012.658
2023-05-09T05:00:02.211Z,1012.69
2023-05-09T05:07:02.246Z,1012.69
2023-05-09T05:14:01.891Z,1012.396
2023-05-09T05:21:01.896Z,1012.396
2023-05-09T05:28:01.484Z,1012.391
2023-05-09T05:35:01.660Z,1012.391
2023-05-09T05:42:01.406Z,1012.233
2023-05-09T05:49:02.247Z,1012.233
2023-05-09T05:56:01.532Z,1012.003
2023-05-09T06:00:02.209Z,1012.003
2023-05-09T06:07:01.680Z,1012.035
2023-05-09T06:14:02.268Z,1012.035
2023-05-09T06:21:01.692Z,1011.958
2023-05-09T06:28:01.531Z,1011.958
2023-05-09T06:35:02.049Z,1011.85
2023-05-09T06:42:01.554Z,1011.85
2023-05-09T06:49:01.470Z,1011.36
2023-05-09T06:56:01.909Z,1011.402
2023-05-09T07:00:02.579Z,1011.402
2023-05-09T07:07:01.788Z,1011.402
2023-05-09T07:14:01.674Z,1011.25
2023-05-09T07:21:01.588Z,1011.25
2023-05-09T07:28:01.916Z,1011.093
2023-05-09T07:35:01.488Z,1010.958
2023-05-09T07:42:02.213Z,1010.958
2023-05-09T07:49:01.943Z,1011.046
2023-05-09T07:56:01.530Z,1011.046
2023-05-09T08:00:02.176Z,1010.698
2023-05-09T08:07:02.004Z,1010.698
2023-05-09T08:14:01.960Z,1010.42
2023-05-09T08:21:01.981Z,1010.42
2023-05-09T08:28:01.785Z,1010.139
2023-05-09T08:35:02.066Z,1010.139
2023-05-09T08:42:01.517Z,1010.215
2023-05-09T08:49:01.757Z,1010.215
2023-05-09T08:56:01.454Z,1009.945
2023-05-09T09:00:02.016Z,1009.945
2023-05-09T09:07:01.604Z,1009.931
2023-05-09T09:14:01.511Z,1009.931
2023-05-09T09:21:01.397Z,1009.543
2023-05-09T09:28:01.604Z,1009.543
2023-05-09T09:35:02.207Z,1009.155
2023-05-09T09:42:01.890Z,1009.155
2023-05-09T09:49:01.535Z,1009.234
2023-05-09T09:56:01.366Z,1009.162
2023-05-09T10:00:01.976Z,1009.162
2023-05-09T10:07:01.666Z,1009.162
2023-05-09T10:14:01.966Z,1009.011
2023-05-09T10:21:01.732Z,1009.011
2023-05-09T10:28:02.119Z,1009.011
2023-05-09T10:35:02.123Z,1008.681
2023-05-09T10:42:02.062Z,1008.681
2023-05-09T10:49:02.126Z,1008.497
2023-05-09T10:56:02.077Z,1008.497
2023-05-09T11:00:01.646Z,1008.497
2023-05-09T11:07:02.038Z,1008.337
2023-05-09T11:14:01.903Z,1008.141
2023-05-09T11:21:01.736Z,1008.141
2023-05-09T11:28:01.995Z,1007.696
2023-05-09T11:35:02.187Z,1007.696
2023-05-09T11:42:01.720Z,1007.623
2023-05-09T11:49:01.534Z,1007.623
2023-05-09T11:56:01.751Z,1007.542
2023-05-09T12:00:02.470Z,1007.542
2023-05-09T12:07:01.611Z,1007.234
2023-05-09T12:14:01.499Z,1007.234
2023-05-09T12:21:02.213Z,1007.019
2023-05-09T12:28:01.594Z,1007.019
2023-05-09T12:35:01.945Z,1006.821
2023-05-09T12:42:02.376Z,1006.821
2023-05-09T12:49:01.635Z,1006.777
2023-05-09T12:56:01.708Z,1006.614
2023-05-09T13:00:02.439Z,1006.614
2023-05-09T13:07:01.517Z,1006.614
2023-05-09T13:14:01.370Z,1006.48
2023-05-09T13:21:01.508Z,1006.48
2023-05-09T13:28:01.590Z,1006.707
2023-05-09T13:35:02.032Z,1006.566
2023-05-09T13:42:01.311Z,1006.566
2023-05-09T13:49:01.810Z,1006.393
2023-05-09T13:56:01.869Z,1006.393
2023-05-09T14:00:02.561Z,1006.393
2023-05-09T14:07:01.694Z,1006.527
2023-05-09T14:14:02.254Z,1006.456
2023-05-09T14:21:01.786Z,1006.456
2023-05-09T14:28:01.938Z,1006.214
2023-05-09T14:35:01.840Z,1006.214
2023-05-09T14:42:01.352Z,1006.565
2023-05-09T14:49:01.997Z,1006.565
2023-05-09T14:56:01.324Z,1006.355
2023-05-09T15:07:02.119Z,1006.143
2023-05-09T15:14:02.149Z,1006.143
2023-05-09T15:21:01.610Z,1006.06
2023-05-09T15:28:01.814Z,1006.06
2023-05-09T15:35:02.361Z,1005.858
2023-05-09T15:42:01.715Z,1005.858
2023-05-09T15:49:01.631Z,1005.686
2023-05-09T15:56:01.966Z,1005.701
2023-05-09T16:00:01.576Z,1005.701
2023-05-09T16:07:01.692Z,1005.701
2023-05-09T16:14:01.699Z,1005.564
2023-05-09T16:21:02.183Z,1005.564
2023-05-09T16:28:01.969Z,1005.483
2023-05-09T16:35:01.902Z,1005.492
2023-05-09T16:42:01.822Z,1005.492
2023-05-09T16:49:02.237Z,1005.381
2023-05-09T16:56:02.042Z,1005.381
2023-05-09T17:00:01.608Z,1005.381
2023-05-09T17:07:02.219Z,1005.478
2023-05-09T17:14:02.190Z,1005.485
2023-05-09T17:21:01.645Z,1005.485
2023-05-09T17:28:01.483Z,1005.421
2023-05-09T17:35:01.602Z,1005.421
2023-05-09T17:42:02.121Z,1005.458
2023-05-09T17:49:02.015Z,1005.458
2023-05-09T17:56:02.278Z,1005.347
2023-05-09T18:00:01.992Z,1005.347
2023-05-09T18:07:01.722Z,1005.111
2023-05-09T18:14:02.228Z,1005.111
2023-05-09T18:21:02.267Z,1005.296
2023-05-09T18:28:02.064Z,1005.296
2023-05-09T18:35:01.842Z,1005.298
2023-05-09T18:42:02.158Z,1005.298
2023-05-09T18:49:02.029Z,1005.07
2023-05-09T18:56:01.701Z,1004.87
2023-05-09T19:00:02.398Z,1004.87
2023-05-09T19:07:01.393Z,1004.87
2023-05-09T19:14:01.655Z,1005.177
2023-05-09T19:21:01.667Z,1005.177
2023-05-09T19:28:01.853Z,1005.319
2023-05-09T19:35:02.405Z,1005.12
2023-05-09T19:42:01.571Z,1005.12
2023-05-09T19:49:01.444Z,1005.372
2023-05-09T19:56:02.067Z,1005.372
2023-05-09T20:00:01.670Z,1005.372
2023-05-09T20:07:01.945Z,1005.263
2023-05-09T20:14:01.637Z,1005.291
2023-05-09T20:21:01.907Z,1005.291
2023-05-09T20:28:01.909Z,1005.198
2023-05-09T20:35:01.554Z,1005.198
2023-05-09T20:42:01.859Z,1005.362
2023-05-09T20:49:02.169Z,1005.362
2023-05-09T20:56:01.596Z,1005.076
2023-05-09T21:00:02.211Z,1005.076
2023-05-09T21:07:01.407Z,1005.332
2023-05-09T21:14:01.530Z,1005.332
2023-05-09T21:21:01.329Z,1005.04
2023-05-09T21:28:02.037Z,1005.04
2023-05-09T21:35:02.639Z,1005.271
2023-05-09T21:42:02.260Z,1005.271
2023-05-09T21:49:01.365Z,1005.182
2023-05-09T21:56:01.652Z,1005.182
2023-05-09T22:00:02.210Z,1005.307
2023-05-09T22:07:01.828Z,1005.307
2023-05-09T22:14:01.680Z,1005.258
2023-05-09T22:21:01.731Z,1005.258
2023-05-09T22:28:02.092Z,1005.074
2023-05-09T22:35:01.791Z,1005.169
2023-05-09T22:42:01.880Z,1005.169
2023-05-09T22:49:02.162Z,1005.06
2023-05-09T22:56:01.401Z,1005.06
2023-05-09T23:00:02.130Z,1005.06
2023-05-09T23:07:02.187Z,1004.752
2023-05-09T23:14:01.701Z,1005.376
2023-05-09T23:21:02.120Z,1005.376
2023-05-09T23:28:02.178Z,1005.036
2023-05-09T23:35:01.547Z,1005.036
2023-05-09T23:42:01.448Z,1005.248
2023-05-09T23:49:01.609Z,1005.248
2023-05-09T23:56:01.827Z,1005.178
